Time;durP1;ratioP1;P1;durP2;ratioP2;P2;SDS_P1;SDS_P2;PMS_P1;PMS_P2;Temp;Humidity;BMP_temperature;BMP_pressure;BME280_temperature;BME280_humidity;BME280_pressure;Samples;Min_cycle;Max_cycle;Signal;HPM_P1;HPM_P2
2023/11/24 00:02:07;;;;;;;9.02;1.20;;;7.20;99.90;;;7.54;100.00;99859.97;5012883;28;20354;-79
2023/11/24 00:04:35;;;;;;;10.90;2.38;;;7.20;99.90;;;7.37;100.00;99870.50;5017327;28;20042;-79
2023/11/24 00:07:03;;;;;;;8.23;1.45;;;7.20;99.90;;;7.28;100.00;99878.03;5020079;28;20034;-79
2023/11/24 00:09:29;;;;;;;11.98;1.40;;;7.10;99.90;;;7.05;100.00;99857.66;5016189;28;20030;-80
2023/11/24 00:11:58;;;;;;;7.68;1.27;;;7.10;99.90;;;7.10;100.00;99848.03;5015845;28;20053;-78
2023/11/24 00:14:24;;;;;;;9.13;1.48;;;7.10;99.90;;;7.12;100.00;99845.94;5028131;28;20044;-77
2023/11/24 00:16:49;;;;;;;7.28;1.50;;;7.10;99.90;;;7.04;100.00;99850.56;5027830;28;20038;-78
2023/11/24 00:19:15;;;;;;;8.98;1.40;;;7.00;99.90;;;6.93;100.00;99834.97;5013076;28;20038;-78
2023/11/24 00:21:46;;;;;;;11.52;2.22;;;6.90;99.90;;;6.98;100.00;99834.28;5011888;28;20045;-78
2023/11/24 00:24:13;;;;;;;16.50;1.90;;;6.90;99.90;;;6.75;100.00;99844.56;5013026;28;20114;-78
2023/11/24 00:26:39;;;;;;;11.63;1.73;;;6.90;99.90;;;6.92;100.00;99846.84;5012670;28;20037;-78
2023/11/24 00:29:05;;;;;;;10.50;1.73;;;6.90;99.90;;;6.83;100.00;99846.22;5021057;28;20045;-78
2023/11/24 00:31:31;;;;;;;9.50;1.75;;;6.80;99.90;;;7.13;100.00;99853.88;5015790;28;20029;-78
2023/11/24 00:33:58;;;;;;;14.85;1.80;;;6.90;99.90;;;7.16;100.00;99868.88;5020203;28;20040;-78
2023/11/24 00:36:24;;;;;;;12.32;1.95;;;7.00;99.90;;;7.08;100.00;99860.97;5018460;28;20860;-79
2023/11/24 00:38:50;;;;;;;11.65;1.67;;;7.00;99.90;;;7.08;100.00;99852.84;5020532;28;20030;-80
2023/11/24 00:41:17;;;;;;;11.93;1.95;;;7.00;99.90;;;7.09;100.00;99862.63;5012405;28;20044;-79
2023/11/24 00:43:48;;;;;;;15.80;2.25;;;7.10;99.90;;;7.03;100.00;99853.50;5013280;28;20060;-79
2023/11/24 00:46:17;;;;;;;14.00;1.92;;;7.20;99.90;;;6.24;100.00;99862.34;5032721;28;20425;-79
2023/11/24 00:48:43;;;;;;;11.80;1.65;;;7.10;99.90;;;6.90;100.00;99852.47;5019476;28;20044;-79
2023/11/24 00:51:09;;;;;;;12.82;1.90;;;7.10;99.90;;;6.88;100.00;99864.56;5033967;28;20042;-79
2023/11/24 00:53:35;;;;;;;13.65;2.13;;;7.20;99.90;;;6.95;100.00;99865.41;5018739;28;20050;-80
2023/11/24 00:56:02;;;;;;;9.80;1.52;;;7.10;99.90;;;6.91;100.00;99856.03;5012806;28;20047;-79
2023/11/24 00:58:27;;;;;;;13.02;1.63;;;7.00;99.90;;;6.70;100.00;99829.97;5014617;28;20080;-79
2023/11/24 01:00:53;;;;;;;11.23;1.73;;;6.90;99.90;;;6.92;100.00;99868.53;5017020;28;20494;-79
2023/11/24 01:03:24;;;;;;;12.52;1.65;;;6.90;99.90;;;6.74;100.00;99851.03;5018337;28;20038;-78
2023/11/24 01:05:52;;;;;;;12.68;2.15;;;6.90;99.90;;;6.59;100.00;99870.25;5011715;28;20034;-81
2023/11/24 01:08:18;;;;;;;10.70;1.50;;;6.80;99.90;;;6.75;100.00;99882.53;5017033;28;20030;-78
2023/11/24 01:10:45;;;;;;;11.05;1.40;;;6.80;99.90;;;6.66;100.00;99883.81;5012291;28;20033;-77
2023/11/24 01:13:10;;;;;;;8.32;1.65;;;6.70;99.90;;;6.75;100.00;99876.25;5011874;28;20041;-80
2023/11/24 01:15:37;;;;;;;11.45;3.28;;;6.70;99.90;;;6.65;100.00;99860.44;5017108;28;20056;-82
2023/11/24 01:18:03;;;;;;;12.48;1.90;;;6.60;99.90;;;6.50;100.00;99865.25;5011895;28;20068;-79
2023/11/24 01:20:29;;;;;;;12.27;2.22;;;6.60;99.90;;;6.51;100.00;99856.06;5021205;28;20061;-78
2023/11/24 01:22:56;;;;;;;13.18;1.73;;;6.70;99.90;;;6.61;100.00;99864.59;5012021;28;20034;-78
2023/11/24 01:25:22;;;;;;;10.15;2.25;;;6.70;99.90;;;6.52;100.00;99847.75;5016587;28;20041;-79
2023/11/24 01:27:48;;;;;;;11.30;1.88;;;6.50;99.90;;;6.45;100.00;99871.28;5035629;28;20049;-79
2023/11/24 01:30:15;;;;;;;12.32;1.77;;;6.60;99.90;;;6.37;100.00;99871.50;5025282;28;20041;-78
2023/11/24 01:32:41;;;;;;;17.05;2.40;;;6.50;99.90;;;6.43;100.00;99895.91;5012431;28;20076;-79
2023/11/24 01:35:09;;;;;;;13.75;2.10;;;6.50;99.90;;;6.70;100.00;99876.91;5015133;28;20049;-78
2023/11/24 01:37:35;;;;;;;11.75;1.60;;;6.50;99.90;;;6.62;100.00;99863.56;5011424;28;20034;-78
2023/11/24 01:40:02;;;;;;;16.35;2.45;;;6.30;99.90;;;6.28;100.00;99860.03;5029934;28;20050;-79
2023/11/24 01:42:28;;;;;;;10.07;1.83;;;6.30;99.90;;;7.04;100.00;99845.13;5019275;28;20098;-80
2023/11/24 01:44:53;;;;;;;13.05;1.85;;;6.40;99.90;;;8.55;100.00;99823.16;5011927;28;20291;-77
2023/11/24 01:47:19;;;;;;;13.85;1.67;;;6.40;99.90;;;7.63;100.00;99861.38;5013419;28;20663;-77
2023/11/24 01:49:45;;;;;;;11.10;2.15;;;6.30;99.90;;;7.30;100.00;99837.94;5021059;28;20033;-78
2023/11/24 01:52:13;;;;;;;10.98;2.00;;;6.20;99.90;;;7.09;100.00;99847.22;5012902;28;20038;-76
2023/11/24 01:54:40;;;;;;;;;;;6.20;99.90;;;7.25;100.00;99831.50;5019892;28;20041;-77
2023/11/24 01:57:09;;;;;;;12.63;1.73;;;6.20;99.90;;;7.19;100.00;99827.78;5019344;28;19917;-77
2023/11/24 01:59:35;;;;;;;11.30;2.10;;;6.10;99.90;;;7.21;100.00;99847.38;5033534;28;20072;-78
2023/11/24 02:02:02;;;;;;;12.20;2.30;;;6.10;99.90;;;6.49;100.00;99831.88;5021125;28;20030;-80
2023/11/24 02:04:28;;;;;;;15.82;1.98;;;6.10;99.90;;;6.85;100.00;99832.44;5016673;28;20520;-80
2023/11/24 02:06:56;;;;;;;12.93;1.83;;;6.10;99.90;;;6.90;100.00;99824.53;5011313;28;20056;-78
2023/11/24 02:09:24;;;;;;;13.23;1.77;;;6.10;99.90;;;7.23;100.00;99825.44;5011048;28;20034;-78
2023/11/24 02:11:50;;;;;;;16.27;1.98;;;6.00;99.90;;;6.89;100.00;99828.25;5011537;28;20104;-78
2023/11/24 02:14:16;;;;;;;18.60;2.25;;;6.00;99.90;;;7.08;100.00;99814.88;5011296;28;20492;-77
2023/11/24 02:16:42;;;;;;;13.57;1.85;;;6.00;99.90;;;6.83;100.00;99815.56;5040289;28;20089;-79
2023/11/24 02:19:08;;;;;;;14.13;2.47;;;5.90;99.90;;;6.71;100.00;99818.94;5018492;28;20049;-77
2023/11/24 02:21:33;;;;;;;16.33;1.95;;;5.80;99.90;;;6.81;100.00;99813.09;5033278;28;20041;-77
2023/11/24 02:23:59;;;;;;;13.45;2.08;;;5.90;99.90;;;6.87;100.00;99795.97;5014222;28;20038;-77
2023/11/24 02:26:26;;;;;;;13.18;2.28;;;5.90;99.90;;;7.09;100.00;99813.81;5020960;28;20052;-77
2023/11/24 02:28:52;;;;;;;17.58;2.83;;;6.00;99.90;;;6.95;100.00;99808.47;5015978;28;20040;-77
2023/11/24 02:31:19;;;;;;;20.08;2.45;;;6.00;99.90;;;6.84;100.00;99792.81;5016488;28;20038;-77
2023/11/24 02:33:48;;;;;;;18.88;2.75;;;6.10;99.90;;;7.05;100.00;99806.13;5021452;28;20090;-78
2023/11/24 02:36:20;;;;;;;17.27;2.90;;;6.10;99.90;;;6.82;100.00;99809.31;5036305;28;20052;-78
2023/11/24 02:38:49;;;;;;;13.35;2.83;;;6.10;99.90;;;6.95;100.00;99813.88;5019239;28;20045;-78
2023/11/24 02:41:16;;;;;;;15.38;2.63;;;6.10;99.90;;;6.87;100.00;99814.94;5018010;28;20121;-77
2023/11/24 02:43:42;;;;;;;16.70;2.80;;;6.00;99.90;;;6.69;100.00;99812.06;5014780;28;20044;-77
2023/11/24 02:46:13;;;;;;;16.95;2.47;;;6.00;99.90;;;6.91;100.00;99820.78;5018130;28;20524;-77
2023/11/24 02:48:41;;;;;;;18.77;3.15;;;6.00;99.90;;;6.51;100.00;99807.28;5035921;28;20055;-79
2023/11/24 02:51:07;;;;;;;21.60;2.70;;;6.00;99.90;;;6.74;100.00;99813.09;5025005;28;20041;-78
2023/11/24 02:53:37;;;;;;;14.63;2.30;;;6.00;99.90;;;6.69;100.00;99807.47;5021140;28;20437;-77
2023/11/24 02:56:04;;;;;;;15.00;2.40;;;6.00;99.90;;;6.61;100.00;99813.94;5018382;28;20041;-80
2023/11/24 02:58:32;;;;;;;19.47;2.50;;;6.00;99.90;;;6.72;100.00;99798.91;5014267;28;20029;-78
2023/11/24 03:00:59;;;;;;;;;;;6.00;99.90;;;6.74;100.00;99795.97;5014573;28;20296;-76
2023/11/24 03:03:27;;;;;;;18.77;2.50;;;5.90;99.90;;;6.84;100.00;99784.69;5014195;28;19928;-77
2023/11/24 03:05:54;;;;;;;22.98;3.47;;;5.90;99.90;;;6.72;100.00;99788.06;5014354;28;20501;-76
2023/11/24 03:08:20;;;;;;;15.73;2.88;;;6.00;99.90;;;6.92;100.00;99808.88;5034293;28;20045;-76
2023/11/24 03:10:46;;;;;;;18.00;2.90;;;6.00;99.90;;;6.90;100.00;99786.56;5044375;28;20424;-78
2023/11/24 03:13:13;;;;;;;14.85;2.40;;;6.10;99.90;;;6.77;100.00;99803.72;5016532;28;20072;-76
2023/11/24 03:15:40;;;;;;;17.00;2.50;;;6.00;99.90;;;6.97;100.00;99783.81;5042590;28;20542;-76
2023/11/24 03:18:07;;;;;;;10.05;2.25;;;5.90;99.90;;;6.62;100.00;99784.94;5018722;28;20041;-79
2023/11/24 03:20:33;;;;;;;12.25;2.38;;;5.90;99.90;;;6.72;100.00;99777.22;5015431;28;20508;-77
2023/11/24 03:22:59;;;;;;;21.00;3.50;;;6.00;99.90;;;6.57;100.00;99793.75;5016679;28;20482;-77
2023/11/24 03:25:25;;;;;;;12.80;2.45;;;6.00;99.90;;;6.69;100.00;99769.53;5018295;28;20100;-76
2023/11/24 03:27:51;;;;;;;9.57;1.88;;;6.00;99.90;;;6.89;100.00;99787.59;5030196;28;20053;-78
2023/11/24 03:30:18;;;;;;;16.15;2.38;;;5.90;99.90;;;6.88;100.00;99788.63;5017240;28;20122;-77
2023/11/24 03:32:44;;;;;;;14.10;2.55;;;5.90;99.90;;;6.97;100.00;99781.09;5017772;28;20122;-77
2023/11/24 03:35:10;;;;;;;12.98;2.03;;;6.00;99.90;;;7.15;100.00;99786.66;5015371;28;20038;-78
2023/11/24 03:37:37;;;;;;;13.32;2.15;;;6.00;99.90;;;6.29;100.00;99799.38;5026218;28;20034;-78
2023/11/24 03:40:05;;;;;;;15.05;2.63;;;5.80;99.90;;;6.27;100.00;99806.88;5016434;28;20080;-77
2023/11/24 03:42:31;;;;;;;17.25;2.70;;;5.60;99.90;;;6.24;100.00;99796.47;5017201;28;20385;-78
2023/11/24 03:44:56;;;;;;;17.85;2.92;;;5.50;99.90;;;6.05;100.00;99790.84;5042620;28;20040;-79
2023/11/24 03:47:23;;;;;;;21.15;2.92;;;5.60;99.90;;;6.10;100.00;99764.00;5017376;28;20034;-78
2023/11/24 03:49:49;;;;;;;17.27;2.78;;;5.40;99.90;;;5.94;100.00;99776.03;5016681;28;20045;-76
2023/11/24 03:52:15;;;;;;;18.77;3.55;;;5.40;99.90;;;6.02;100.00;99766.91;5024430;28;20125;-79
2023/11/24 03:54:41;;;;;;;17.25;2.72;;;5.40;99.90;;;6.06;100.00;99765.44;5014348;28;20485;-78
2023/11/24 03:57:07;;;;;;;22.98;3.17;;;5.40;99.90;;;5.95;100.00;99752.50;5020903;28;20026;-78
2023/11/24 03:59:33;;;;;;;21.38;2.47;;;5.60;99.90;;;6.22;100.00;99749.81;5012873;28;20041;-78
2023/11/24 04:01:59;;;;;;;12.77;2.25;;;5.70;99.90;;;6.28;100.00;99754.38;5016778;28;20536;-78
2023/11/24 04:04:24;;;;;;;14.52;2.22;;;5.50;99.90;;;6.26;100.00;99740.22;5013529;28;20030;-79
2023/11/24 04:06:50;;;;;;;15.30;2.15;;;5.50;99.90;;;6.12;100.00;99734.84;5021000;28;20091;-79
2023/11/24 04:09:16;;;;;;;13.77;2.08;;;5.50;99.90;;;6.20;100.00;99739.16;5033694;28;20401;-79
2023/11/24 04:11:42;;;;;;;14.25;2.28;;;5.50;99.90;;;6.46;100.00;99737.47;5020390;28;20056;-79
2023/11/24 04:14:08;;;;;;;18.33;2.22;;;5.50;99.90;;;6.54;100.00;99730.97;5016473;28;20230;-79
2023/11/24 04:16:34;;;;;;;17.77;2.35;;;5.50;99.90;;;6.20;100.00;99709.38;5013128;28;20402;-78
2023/11/24 04:18:59;;;;;;;13.88;2.22;;;5.50;99.90;;;6.12;100.00;99733.97;5013117;28;20044;-80
2023/11/24 04:21:25;;;;;;;15.95;1.85;;;5.50;99.90;;;6.12;100.00;99723.16;5033761;28;20038;-78
2023/11/24 04:23:51;;;;;;;14.07;2.45;;;5.50;99.90;;;6.34;100.00;99726.44;5018197;28;20041;-77
2023/11/24 04:26:17;;;;;;;18.50;2.67;;;5.50;99.90;;;6.07;100.00;99742.72;5017196;28;20045;-79
2023/11/24 04:28:42;;;;;;;12.55;2.13;;;5.50;99.90;;;5.96;100.00;99751.47;5023686;28;20033;-79
2023/11/24 04:31:08;;;;;;;13.15;1.92;;;5.60;99.90;;;5.95;100.00;99728.13;5012472;28;20108;-80
2023/11/24 04:33:34;;;;;;;19.40;3.10;;;5.50;99.90;;;5.92;100.00;99739.38;5012594;28;20037;-80
2023/11/24 04:35:59;;;;;;;10.18;2.10;;;5.50;99.90;;;5.78;100.00;99742.06;5019159;28;20038;-80
2023/11/24 04:38:25;;;;;;;15.05;3.03;;;5.40;99.90;;;5.76;100.00;99727.91;5015841;28;20042;-81
2023/11/24 04:40:51;;;;;;;15.55;2.50;;;5.30;99.90;;;5.88;100.00;99737.09;5019897;28;20034;-80
2023/11/24 04:43:18;;;;;;;16.25;2.63;;;5.40;99.90;;;5.59;100.00;99736.47;5022272;28;20034;-79
2023/11/24 04:45:44;;;;;;;11.63;2.20;;;5.20;99.90;;;5.43;100.00;99720.59;5023220;28;20528;-79
2023/11/24 04:48:12;;;;;;;16.55;2.05;;;5.20;99.90;;;5.41;100.00;99722.69;5012985;28;20057;-79
2023/11/24 04:50:38;;;;;;;;;;;5.10;99.90;;;5.47;100.00;99711.03;5017186;28;20092;-77
2023/11/24 04:53:04;;;;;;;20.15;2.65;;;5.10;99.90;;;5.38;100.00;99701.47;5018183;28;19925;-77
2023/11/24 04:55:30;;;;;;;15.35;2.95;;;5.00;99.90;;;5.33;100.00;99704.78;5021294;28;20705;-79
2023/11/24 04:57:55;;;;;;;18.65;2.55;;;5.00;99.90;;;5.56;100.00;99726.03;5018923;28;20050;-78
2023/11/24 05:00:21;;;;;;;16.92;2.22;;;4.90;99.90;;;5.37;100.00;99721.44;5033433;28;20045;-80
2023/11/24 05:02:47;;;;;;;16.60;2.15;;;4.90;99.90;;;5.53;100.00;99698.56;5018633;28;20030;-78
2023/11/24 05:05:13;;;;;;;13.60;2.42;;;5.00;99.90;;;5.61;100.00;99706.47;5033138;28;20041;-78
2023/11/24 05:07:39;;;;;;;13.95;2.20;;;5.00;99.90;;;5.81;100.00;99709.16;5015544;28;20026;-77
2023/11/24 05:10:06;;;;;;;16.38;2.13;;;5.00;99.90;;;5.48;100.00;99701.88;5011644;28;20037;-77
2023/11/24 05:12:32;;;;;;;18.25;2.50;;;5.10;99.90;;;5.41;100.00;99714.56;5024138;28;20079;-78
2023/11/24 05:14:58;;;;;;;13.82;2.13;;;5.00;99.90;;;5.78;100.00;99701.47;5016969;28;20064;-78
2023/11/24 05:17:24;;;;;;;10.45;2.13;;;5.00;99.90;;;5.67;100.00;99710.22;5015122;28;20058;-81
2023/11/24 05:19:50;;;;;;;13.45;1.90;;;5.00;99.90;;;5.47;100.00;99711.88;5016902;28;20046;-77
2023/11/24 05:22:15;;;;;;;8.73;1.00;;;5.00;99.90;;;5.59;100.00;99709.41;5016601;28;20045;-79
2023/11/24 05:24:41;;;;;;;9.57;1.83;;;5.00;99.90;;;5.27;100.00;99700.19;5011519;28;20064;-84
2023/11/24 05:27:07;;;;;;;10.48;1.35;;;5.00;99.90;;;5.58;100.00;99693.34;5003088;28;20124;-83
2023/11/24 05:29:33;;;;;;;11.70;1.80;;;4.90;99.90;;;5.73;100.00;99693.16;5022582;28;20299;-77
2023/11/24 05:31:59;;;;;;;15.13;2.15;;;4.80;99.90;;;5.37;100.00;99695.19;5017110;28;20133;-78
2023/11/24 05:34:25;;;;;;;10.57;1.73;;;4.80;99.90;;;5.77;100.00;99699.81;5023263;28;20076;-77
2023/11/24 05:36:52;;;;;;;11.45;1.42;;;4.80;99.90;;;5.76;100.00;99692.72;5017495;28;20034;-78
2023/11/24 05:39:18;;;;;;;7.85;1.38;;;4.90;99.90;;;5.65;100.00;99679.84;5015966;28;20037;-80
2023/11/24 05:41:44;;;;;;;7.55;1.17;;;4.80;99.90;;;5.67;100.00;99683.16;5025967;28;20073;-79
2023/11/24 05:44:11;;;;;;;7.55;1.48;;;4.70;99.90;;;5.38;100.00;99679.81;5022007;28;20488;-79
2023/11/24 05:46:38;;;;;;;9.35;1.15;;;4.70;99.90;;;5.22;100.00;99676.44;5035292;28;20116;-79
2023/11/24 05:49:04;;;;;;;4.22;0.90;;;4.60;99.90;;;5.45;100.00;99680.66;5012464;28;20065;-79
2023/11/24 05:51:32;;;;;;;3.08;0.82;;;4.60;99.90;;;5.24;100.00;99689.78;5011662;28;20042;-79
2023/11/24 05:53:58;;;;;;;4.47;0.80;;;4.50;99.90;;;5.47;100.00;99678.56;5017268;28;20030;-80
2023/11/24 05:56:23;;;;;;;4.72;0.70;;;4.50;99.90;;;5.46;100.00;99676.91;5011044;28;20046;-79
2023/11/24 05:58:51;;;;;;;3.95;0.93;;;4.40;99.90;;;5.45;100.00;99678.78;5014648;28;20061;-79
2023/11/24 06:01:21;;;;;;;5.10;1.10;;;4.40;99.90;;;5.03;100.00;99672.69;5019868;28;20069;-80
2023/11/24 06:03:47;;;;;;;4.15;0.80;;;4.40;99.90;;;5.10;100.00;99686.22;5017885;28;20022;-81
2023/11/24 06:06:13;;;;;;;5.63;1.10;;;4.40;99.90;;;5.18;100.00;99672.50;5030763;28;20484;-79
2023/11/24 06:08:38;;;;;;;5.50;1.10;;;4.40;99.90;;;5.04;100.00;99685.16;5019951;28;20038;-78
2023/11/24 06:11:04;;;;;;;10.25;1.40;;;4.30;99.90;;;4.85;100.00;99667.84;5020878;28;20050;-78
2023/11/24 06:13:30;;;;;;;7.68;1.50;;;4.40;99.90;;;5.11;100.00;99679.78;5022498;28;20675;-79
2023/11/24 06:15:56;;;;;;;8.63;1.27;;;4.40;99.90;;;4.96;100.00;99675.34;5023775;28;20431;-78
2023/11/24 06:18:22;;;;;;;11.80;1.50;;;4.40;99.90;;;5.04;100.00;99677.91;5028460;28;20540;-78
2023/11/24 06:20:48;;;;;;;14.98;1.73;;;4.30;99.90;;;5.15;100.00;99668.31;5017194;28;20034;-78
2023/11/24 06:23:14;;;;;;;6.43;1.20;;;4.30;99.90;;;5.08;100.00;99677.47;5024359;28;20040;-79
2023/11/24 06:25:39;;;;;;;9.95;1.77;;;4.30;99.90;;;5.06;100.00;99652.53;5016580;28;20037;-79
2023/11/24 06:28:05;;;;;;;6.95;1.40;;;4.30;99.90;;;4.89;100.00;99669.91;5022265;28;20075;-79
2023/11/24 06:30:31;;;;;;;10.45;1.77;;;4.30;99.90;;;5.01;100.00;99675.56;5022059;28;20121;-77
2023/11/24 06:32:57;;;;;;;13.02;1.90;;;4.50;99.90;;;5.00;100.00;99663.09;5037091;28;20112;-78
2023/11/24 06:35:23;;;;;;;11.18;1.70;;;4.50;99.90;;;5.28;100.00;99681.03;5020741;28;20076;-77
2023/11/24 06:37:48;;;;;;;7.90;1.40;;;4.50;99.90;;;5.47;100.00;99675.88;5028318;28;20048;-78
2023/11/24 06:40:14;;;;;;;10.07;1.45;;;4.60;99.90;;;5.43;100.00;99669.22;5020336;28;20050;-78
2023/11/24 06:42:40;;;;;;;6.05;1.10;;;4.70;99.90;;;5.42;100.00;99670.25;5028586;28;20050;-78
2023/11/24 06:45:12;;;;;;;6.15;1.55;;;4.80;99.90;;;5.39;100.00;99685.00;5017199;28;20029;-78
2023/11/24 06:47:39;;;;;;;8.15;1.65;;;4.90;99.90;;;5.81;100.00;99686.69;5039941;28;20034;-77
2023/11/24 06:50:14;;;;;;;6.83;1.50;;;4.80;99.90;;;5.81;100.00;99684.00;5018186;28;20433;-78
2023/11/24 06:52:41;;;;;;;13.70;2.05;;;4.80;99.90;;;5.46;100.00;99687.72;5016586;28;20053;-78
2023/11/24 06:55:07;;;;;;;9.07;1.20;;;4.80;99.90;;;5.69;100.00;99679.19;5018906;28;20040;-79
2023/11/24 06:57:34;;;;;;;9.32;1.85;;;4.80;99.90;;;5.66;100.00;99679.63;5014764;28;20026;-79
2023/11/24 06:59:59;;;;;;;10.18;2.22;;;4.80;99.90;;;5.40;100.00;99689.38;5014568;28;20046;-77
2023/11/24 07:02:25;;;;;;;7.78;1.20;;;4.80;99.90;;;5.67;100.00;99702.09;5014519;28;20037;-78
2023/11/24 07:04:52;;;;;;;11.00;1.35;;;4.80;99.90;;;5.63;100.00;99693.56;5014410;28;20038;-79
2023/11/24 07:07:19;;;;;;;8.60;1.50;;;4.80;99.90;;;5.58;100.00;99688.78;5017499;28;20490;-78
2023/11/24 07:09:44;;;;;;;8.38;1.33;;;4.80;99.90;;;5.66;100.00;99693.13;5020311;28;20302;-78
2023/11/24 07:12:16;;;;;;;5.22;1.05;;;4.80;99.90;;;5.72;100.00;99686.91;5013760;28;20030;-78
2023/11/24 07:14:41;;;;;;;8.75;1.65;;;4.80;99.90;;;5.58;100.00;99698.78;5023322;28;20469;-78
2023/11/24 07:17:07;;;;;;;4.30;1.00;;;4.90;99.90;;;5.58;100.00;99685.25;5020249;28;20042;-78
2023/11/24 07:19:33;;;;;;;8.80;1.63;;;4.80;99.90;;;5.65;100.00;99685.25;5022541;28;20060;-79
2023/11/24 07:21:59;;;;;;;6.03;1.13;;;4.90;99.90;;;5.74;100.00;99674.00;5018661;28;20110;-79
2023/11/24 07:24:24;;;;;;;8.38;1.48;;;4.90;99.90;;;5.63;100.00;99684.63;5017866;28;20675;-78
2023/11/24 07:26:53;;;;;;;6.03;0.98;;;4.90;99.90;;;5.70;100.00;99686.31;5014532;28;20049;-78
2023/11/24 07:29:21;;;;;;;6.68;1.00;;;4.90;99.90;;;5.76;100.00;99698.16;5015000;28;20498;-77
2023/11/24 07:31:48;;;;;;;;;;;4.90;99.90;;;5.35;100.00;99702.69;5018744;28;20041;-77
2023/11/24 07:34:14;;;;;;;7.57;1.40;;;4.90;99.90;;;5.40;100.00;99704.78;5024804;28;20276;-77
2023/11/24 07:36:40;;;;;;;6.57;1.40;;;4.90;99.90;;;5.31;100.00;99690.63;5020179;28;20071;-79
2023/11/24 07:39:06;;;;;;;5.70;0.80;;;4.90;99.90;;;5.68;100.00;99684.81;5015194;28;20033;-78
2023/11/24 07:41:32;;;;;;;6.70;1.20;;;4.80;99.90;;;5.44;100.00;99689.81;5021529;28;20105;-78
2023/11/24 07:43:58;;;;;;;7.97;1.30;;;4.80;99.90;;;5.23;100.00;99691.63;5029861;28;20303;-78
2023/11/24 07:46:23;;;;;;;9.60;1.67;;;4.80;99.90;;;5.17;100.00;99676.25;5023695;28;20049;-78
2023/11/24 07:48:49;;;;;;;8.23;1.48;;;4.80;99.90;;;5.34;100.00;99682.09;5016790;28;20119;-78
2023/11/24 07:51:15;;;;;;;12.07;1.98;;;4.80;99.90;;;5.31;100.00;99656.31;5022128;28;20049;-77
2023/11/24 07:53:40;;;;;;;10.32;1.50;;;4.80;99.90;;;5.51;100.00;99668.19;5023983;28;20038;-78
2023/11/24 07:56:07;;;;;;;5.97;1.10;;;4.90;99.90;;;5.63;100.00;99654.84;5013816;28;20048;-78
2023/11/24 07:58:32;;;;;;;7.93;1.60;;;5.00;99.90;;;5.92;100.00;99663.56;5013397;28;20101;-79
2023/11/24 08:01:00;;;;;;;6.65;1.17;;;5.00;99.90;;;5.71;100.00;99655.50;5027186;28;20046;-77
2023/11/24 08:03:28;;;;;;;12.32;1.67;;;5.00;99.90;;;5.90;100.00;99651.09;5040095;28;20025;-77
2023/11/24 08:05:55;;;;;;;;;;;5.10;99.90;;;5.95;100.00;99641.50;5015225;28;20052;-77
2023/11/24 08:08:22;;;;;;;8.77;1.55;;;5.10;99.90;;;6.01;100.00;99641.53;5017992;28;19940;-77
2023/11/24 08:10:48;;;;;;;10.60;1.88;;;5.10;99.90;;;5.80;100.00;99647.13;5029777;28;20121;-77
2023/11/24 08:13:14;;;;;;;10.38;1.75;;;5.10;99.90;;;5.93;100.00;99638.16;5021223;28;20100;-78
2023/11/24 08:15:39;;;;;;;11.48;1.50;;;5.10;99.90;;;5.67;100.00;99648.81;5028134;28;20038;-78
2023/11/24 08:18:05;;;;;;;9.57;1.00;;;5.10;99.90;;;6.18;100.00;99638.34;5012751;28;20029;-76
2023/11/24 08:20:31;;;;;;;7.35;1.50;;;5.10;99.90;;;5.96;100.00;99626.91;5015868;28;20049;-78
2023/11/24 08:22:58;;;;;;;10.07;1.20;;;5.10;99.90;;;6.43;100.00;99640.34;5021097;28;20045;-77
2023/11/24 08:25:23;;;;;;;7.90;1.40;;;5.20;99.90;;;6.04;100.00;99651.09;5023561;28;20424;-78
2023/11/24 08:27:49;;;;;;;9.55;1.48;;;5.20;99.90;;;5.98;100.00;99633.78;5016187;28;20046;-77
2023/11/24 08:30:16;;;;;;;10.40;1.42;;;5.20;99.90;;;6.11;100.00;99622.13;5014749;28;20038;-78
2023/11/24 08:32:43;;;;;;;9.23;1.50;;;5.20;99.90;;;6.25;100.00;99630.19;5011032;28;20057;-77
2023/11/24 08:35:09;;;;;;;6.82;1.20;;;5.10;99.90;;;6.06;100.00;99616.50;5016847;28;20038;-77
2023/11/24 08:37:34;;;;;;;7.88;1.30;;;5.10;99.90;;;6.19;100.00;99624.59;5034364;28;20030;-77
2023/11/24 08:40:04;;;;;;;10.75;1.40;;;5.10;99.90;;;5.75;100.00;99621.53;5017820;28;20461;-77
2023/11/24 08:42:31;;;;;;;7.55;1.10;;;5.10;99.90;;;5.69;100.00;99621.53;5020222;28;20029;-77
2023/11/24 08:44:57;;;;;;;12.80;1.67;;;5.10;99.90;;;6.10;100.00;99603.38;5018499;28;20034;-78
2023/11/24 08:47:25;;;;;;;7.68;1.45;;;5.00;99.90;;;6.19;100.00;99607.50;5012679;28;20429;-77
2023/11/24 08:49:51;;;;;;;;;;;5.10;99.90;;;5.91;100.00;99608.59;5012991;28;20037;-77
2023/11/24 08:52:19;;;;;;;10.70;1.58;;;5.00;99.90;;;6.05;100.00;99609.41;5018910;28;19916;-77
2023/11/24 08:54:45;;;;;;;7.78;1.10;;;5.00;99.90;;;5.56;100.00;99601.56;5023880;28;20033;-78
2023/11/24 08:57:11;;;;;;;7.30;1.45;;;5.00;99.90;;;5.97;100.00;99596.94;5025364;28;20117;-79
2023/11/24 08:59:37;;;;;;;10.13;1.50;;;5.00;99.90;;;6.06;100.00;99584.00;5018367;28;20147;-78
2023/11/24 09:02:06;;;;;;;7.18;1.30;;;5.10;99.90;;;5.96;100.00;99580.88;5013211;28;20049;-78
2023/11/24 09:04:32;;;;;;;8.80;1.08;;;5.20;99.90;;;6.16;100.00;99586.25;5023910;28;20060;-78
2023/11/24 09:06:58;;;;;;;9.13;1.00;;;5.20;99.90;;;5.91;100.00;99592.34;5023731;28;20037;-79
2023/11/24 09:09:24;;;;;;;5.72;1.45;;;5.30;99.90;;;6.07;100.00;99590.25;5028259;28;20076;-79
2023/11/24 09:11:50;;;;;;;14.50;1.73;;;5.50;99.90;;;6.10;100.00;99587.97;5017000;28;20070;-78
2023/11/24 09:14:16;;;;;;;6.88;0.95;;;5.50;99.90;;;5.86;100.00;99571.34;5012398;28;20042;-78
2023/11/24 09:16:42;;;;;;;6.00;1.02;;;5.40;99.90;;;6.68;100.00;99561.88;5016827;28;20042;-78
2023/11/24 09:19:08;;;;;;;5.03;0.70;;;5.50;99.90;;;6.33;100.00;99564.94;5012112;28;20034;-78
2023/11/24 09:21:34;;;;;;;7.18;0.77;;;5.70;99.90;;;6.44;100.00;99561.56;5018052;28;20042;-79
2023/11/24 09:24:01;;;;;;;5.10;0.70;;;5.60;99.90;;;6.27;100.00;99552.25;5012753;28;20383;-78
2023/11/24 09:26:28;;;;;;;6.47;0.65;;;5.50;99.90;;;6.05;100.00;99557.97;5021705;28;20429;-78
2023/11/24 09:28:54;;;;;;;5.18;0.90;;;5.60;99.90;;;6.50;100.00;99567.16;5022354;28;20161;-78
2023/11/24 09:31:21;;;;;;;5.53;0.80;;;5.90;99.90;;;6.32;100.00;99555.16;5014655;28;20113;-77
2023/11/24 09:33:48;;;;;;;5.95;1.17;;;6.20;99.90;;;6.86;100.00;99557.56;5015765;28;20038;-78
2023/11/24 09:36:14;;;;;;;3.80;0.88;;;6.40;99.90;;;6.89;100.00;99554.41;5024647;28;20038;-77
2023/11/24 09:38:39;;;;;;;4.25;0.85;;;6.50;99.90;;;6.59;100.00;99541.47;5023574;28;20049;-79
2023/11/24 09:41:11;;;;;;;4.55;0.85;;;6.40;99.90;;;7.73;100.00;99531.56;5027691;28;20042;-79
2023/11/24 09:43:40;;;;;;;7.88;1.15;;;7.00;99.90;;;8.14;100.00;99550.97;5026668;28;20052;-79
2023/11/24 09:46:08;;;;;;;3.53;0.70;;;7.40;99.90;;;7.75;100.00;99526.75;5017731;28;20124;-79
2023/11/24 09:48:35;;;;;;;7.93;1.20;;;7.50;99.90;;;8.81;100.00;99552.78;5027491;28;20123;-76
2023/11/24 09:51:03;;;;;;;6.50;1.05;;;8.00;99.90;;;7.46;100.00;99548.13;5021379;28;20481;-80
2023/11/24 09:53:36;;;;;;;5.32;1.05;;;7.30;99.90;;;8.26;100.00;99524.66;5017523;28;20030;-77
2023/11/24 09:56:04;;;;;;;5.03;1.20;;;7.20;99.90;;;6.74;100.00;99508.63;5012453;28;20044;-80
2023/11/24 09:58:32;;;;;;;5.88;1.10;;;6.50;99.90;;;7.20;100.00;99522.91;5015527;28;20045;-77
2023/11/24 10:01:16;;;;;;;6.35;1.17;;;6.40;99.90;;;7.64;100.00;99509.31;5015495;28;20155;-79
2023/11/24 10:03:49;;;;;;;6.25;1.00;;;6.80;99.90;;;7.37;100.00;99511.47;5015960;28;20350;-81
2023/11/24 10:06:15;;;;;;;5.78;0.88;;;7.00;99.90;;;7.25;100.00;99516.78;5011564;28;20045;-79
2023/11/24 10:08:41;;;;;;;3.10;0.88;;;6.70;99.90;;;6.40;100.00;99517.00;5014053;28;20478;-79
2023/11/24 10:11:13;;;;;;;6.03;0.90;;;6.30;99.90;;;5.93;100.00;99516.34;5014872;28;20092;-79
2023/11/24 10:13:44;;;;;;;8.60;1.40;;;5.90;99.90;;;6.01;100.00;99510.72;5011782;28;20393;-78
2023/11/24 10:16:13;;;;;;;6.50;1.10;;;5.70;99.90;;;6.32;100.00;99496.41;5011374;28;20064;-77
2023/11/24 10:18:40;;;;;;;6.53;1.25;;;5.80;99.90;;;6.17;100.00;99483.16;5011618;28;20034;-78
2023/11/24 10:21:07;;;;;;;4.17;0.93;;;5.70;99.90;;;5.86;100.00;99522.63;5011274;28;20045;-79